createdAt,value
2023-05-19T00:01:29.099Z,6.00
2023-05-19T00:04:05.118Z,5.50
2023-05-19T00:06:35.898Z,5.73
2023-05-19T00:09:13.184Z,5.00
2023-05-19T00:11:40.384Z,5.55
2023-05-19T00:16:36.220Z,5.70
2023-05-19T00:19:04.548Z,5.53
2023-05-19T00:21:32.147Z,5.90
2023-05-19T00:23:59.003Z,5.70
2023-05-19T00:26:27.090Z,6.72
2023-05-19T00:29:02.359Z,5.60
2023-05-19T00:31:29.111Z,4.80
2023-05-19T00:33:55.849Z,5.97
2023-05-19T00:36:22.683Z,6.95
2023-05-19T00:38:49.387Z,6.00
2023-05-19T00:41:15.992Z,5.75
2023-05-19T00:43:42.865Z,6.32
2023-05-19T00:46:10.954Z,6.32
2023-05-19T00:48:37.841Z,6.57
2023-05-19T00:51:06.570Z,5.68
2023-05-19T00:53:36.031Z,6.47
2023-05-19T00:56:03.361Z,6.38
2023-05-19T00:58:33.882Z,6.40
2023-05-19T01:01:05.205Z,6.27
2023-05-19T01:03:35.215Z,6.37
2023-05-19T01:06:05.404Z,6.03
2023-05-19T01:08:33.240Z,7.10
2023-05-19T01:11:00.487Z,5.77
2023-05-19T01:16:09.039Z,6.03
2023-05-19T01:18:39.434Z,6.27
2023-05-19T01:21:36.299Z,5.93
2023-05-19T01:24:22.998Z,5.83
2023-05-19T01:27:42.036Z,6.87
2023-05-19T01:30:30.010Z,5.93
2023-05-19T01:33:00.543Z,6.60
2023-05-19T01:35:28.254Z,6.17
2023-05-19T01:37:59.679Z,6.37
2023-05-19T01:40:27.813Z,6.00
2023-05-19T01:42:57.866Z,6.63
2023-05-19T01:45:28.660Z,6.10
2023-05-19T01:47:58.497Z,7.33
2023-05-19T01:50:25.995Z,6.53
2023-05-19T01:52:53.178Z,6.07
2023-05-19T01:58:19.488Z,8.07
2023-05-19T02:00:58.518Z,6.85
2023-05-19T02:04:03.266Z,6.90
2023-05-19T02:06:37.419Z,6.50
2023-05-19T02:09:25.694Z,6.83
2023-05-19T02:14:27.353Z,6.07
2023-05-19T02:16:54.104Z,7.40
2023-05-19T02:19:26.877Z,6.63
2023-05-19T02:21:58.414Z,6.40
2023-05-19T02:24:25.468Z,7.07
2023-05-19T02:26:52.986Z,6.68
2023-05-19T02:29:20.673Z,6.80
2023-05-19T02:31:48.002Z,7.03
2023-05-19T02:34:14.858Z,6.47
2023-05-19T02:36:49.783Z,7.50
2023-05-19T02:39:16.757Z,7.30
2023-05-19T02:41:43.382Z,6.22
2023-05-19T02:44:10.129Z,6.88
2023-05-19T02:46:37.050Z,8.95
2023-05-19T02:49:03.768Z,6.97
2023-05-19T02:51:30.514Z,6.57
2023-05-19T02:53:57.202Z,6.82
2023-05-19T02:56:26.524Z,7.10
2023-05-19T02:58:53.273Z,7.73
2023-05-19T03:01:22.107Z,7.47
2023-05-19T03:03:49.079Z,7.77
2023-05-19T03:08:45.453Z,8.47
2023-05-19T03:11:12.134Z,7.68
2023-05-19T03:13:38.949Z,8.65
2023-05-19T03:16:08.334Z,7.43
2023-05-19T03:18:35.241Z,6.90
2023-05-19T03:21:01.940Z,7.40
2023-05-19T03:23:28.625Z,7.47
2023-05-19T03:25:56.317Z,8.13
2023-05-19T03:28:23.459Z,7.80
2023-05-19T03:30:50.835Z,7.38
2023-05-19T03:33:20.855Z,7.17
2023-05-19T03:35:47.878Z,7.40
2023-05-19T03:38:15.475Z,8.97
2023-05-19T03:40:49.545Z,7.43
2023-05-19T03:43:16.307Z,7.15
2023-05-19T03:45:51.911Z,7.57
2023-05-19T03:48:38.581Z,8.13
2023-05-19T03:51:29.934Z,8.03
2023-05-19T03:54:05.344Z,8.10
2023-05-19T03:56:32.943Z,8.07
2023-05-19T03:59:00.286Z,7.50
2023-05-19T04:01:26.984Z,8.23
2023-05-19T04:03:53.638Z,8.38
2023-05-19T04:06:20.423Z,7.90
2023-05-19T04:08:47.127Z,7.20
2023-05-19T04:11:13.861Z,8.48
2023-05-19T04:13:40.509Z,8.90
2023-05-19T04:16:07.593Z,7.63
2023-05-19T04:21:01.743Z,8.03
2023-05-19T04:23:28.391Z,7.30
2023-05-19T04:25:57.061Z,7.07
2023-05-19T04:28:24.177Z,7.80
2023-05-19T04:30:51.772Z,7.13
2023-05-19T04:33:20.158Z,7.10
2023-05-19T04:35:47.136Z,7.07
2023-05-19T04:38:18.833Z,7.32
2023-05-19T04:40:50.090Z,7.30
2023-05-19T04:43:18.024Z,6.65
2023-05-19T04:45:44.913Z,7.20
2023-05-19T04:50:42.198Z,6.50
2023-05-19T04:53:09.704Z,6.45
2023-05-19T04:55:38.602Z,7.00
2023-05-19T04:58:06.516Z,6.57
2023-05-19T05:00:35.791Z,8.15
2023-05-19T05:03:06.385Z,7.13
2023-05-19T05:05:35.024Z,6.35
2023-05-19T05:08:01.729Z,8.60
2023-05-19T05:10:32.654Z,6.70
2023-05-19T05:15:29.920Z,6.35
2023-05-19T05:17:59.398Z,6.18
2023-05-19T05:20:26.671Z,6.63
2023-05-19T05:22:54.012Z,6.15
2023-05-19T05:25:21.933Z,5.82
2023-05-19T05:27:49.011Z,5.78
2023-05-19T05:30:15.930Z,5.63
2023-05-19T05:32:42.790Z,6.65
2023-05-19T05:35:19.147Z,5.70
2023-05-19T05:37:45.909Z,6.03
2023-05-19T05:42:39.974Z,5.68
2023-05-19T05:47:38.409Z,5.55
2023-05-19T05:50:06.939Z,4.82
2023-05-19T05:52:34.030Z,5.93
2023-05-19T05:55:01.588Z,5.55
2023-05-19T05:57:30.740Z,5.57
2023-05-19T05:59:57.877Z,5.63
2023-05-19T06:02:24.787Z,5.38
2023-05-19T06:07:18.636Z,5.03
2023-05-19T06:09:45.280Z,5.28
2023-05-19T06:12:12.002Z,5.50
2023-05-19T06:14:44.069Z,4.70
2023-05-19T06:17:10.964Z,4.90
2023-05-19T06:19:37.710Z,4.70
2023-05-19T06:22:04.457Z,5.07
2023-05-19T06:24:31.467Z,5.15
2023-05-19T06:26:58.831Z,5.50
2023-05-19T06:31:54.178Z,4.45
2023-05-19T06:36:48.167Z,4.22
2023-05-19T06:39:16.253Z,4.35
2023-05-19T06:41:43.298Z,4.18
2023-05-19T06:44:25.183Z,4.18
2023-05-19T06:46:51.892Z,4.05
2023-05-19T06:49:19.293Z,4.20
2023-05-19T06:51:47.805Z,4.45
2023-05-19T06:56:43.198Z,4.32
2023-05-19T07:01:38.075Z,4.03
2023-05-19T07:04:05.121Z,5.38
2023-05-19T07:08:58.518Z,3.92
2023-05-19T07:11:26.556Z,4.35
2023-05-19T07:13:53.832Z,3.60
2023-05-19T07:16:26.370Z,3.85
2023-05-19T07:18:54.996Z,3.63
2023-05-19T07:21:21.809Z,3.88
2023-05-19T07:23:50.297Z,3.88
2023-05-19T07:26:19.950Z,4.45
2023-05-19T07:28:46.621Z,4.00
2023-05-19T07:31:13.390Z,4.15
2023-05-19T07:33:40.824Z,3.60
2023-05-19T07:36:07.800Z,3.63
2023-05-19T07:38:34.896Z,3.83
2023-05-19T07:43:28.720Z,3.72
2023-05-19T07:45:56.384Z,3.35
2023-05-19T07:48:25.591Z,3.85
2023-05-19T07:50:52.972Z,3.42
2023-05-19T07:53:20.030Z,3.22
2023-05-19T07:55:46.810Z,3.17
2023-05-19T07:58:13.442Z,3.50
2023-05-19T08:00:46.359Z,3.05
2023-05-19T08:03:13.798Z,3.60
2023-05-19T08:05:40.632Z,3.63
2023-05-19T08:08:07.678Z,3.22
2023-05-19T08:10:34.682Z,3.30
2023-05-19T08:13:01.512Z,3.17
2023-05-19T08:15:28.264Z,2.75
2023-05-19T08:17:55.212Z,3.50
2023-05-19T08:20:22.917Z,3.47
2023-05-19T08:22:49.787Z,3.30
2023-05-19T08:25:16.754Z,2.78
2023-05-19T08:27:43.443Z,3.83
2023-05-19T08:30:10.684Z,2.45
2023-05-19T08:32:37.288Z,2.78
2023-05-19T08:35:04.435Z,3.22
2023-05-19T08:40:00.867Z,3.25
2023-05-19T08:42:27.650Z,3.42
2023-05-19T08:44:56.635Z,3.97
2023-05-19T08:47:23.430Z,2.50
2023-05-19T08:49:52.917Z,3.40
2023-05-19T08:52:41.116Z,4.57
2023-05-19T08:55:26.013Z,3.00
2023-05-19T08:57:52.913Z,2.92
2023-05-19T09:00:21.041Z,3.28
2023-05-19T09:03:01.086Z,3.17
2023-05-19T09:05:33.447Z,3.10
2023-05-19T09:08:02.713Z,3.90
2023-05-19T09:10:29.532Z,3.50
2023-05-19T09:12:56.259Z,3.65
2023-05-19T09:15:26.905Z,3.30
2023-05-19T09:18:07.133Z,3.63
2023-05-19T09:20:37.517Z,3.70
2023-05-19T09:23:04.244Z,3.92
2023-05-19T09:25:32.282Z,3.90
2023-05-19T09:27:59.183Z,3.88
2023-05-19T09:30:26.191Z,4.18
2023-05-19T09:32:52.860Z,4.22
2023-05-19T09:35:21.889Z,3.75
2023-05-19T09:37:48.545Z,4.47
2023-05-19T09:40:15.797Z,3.85
2023-05-19T09:45:10.113Z,3.67
2023-05-19T09:47:38.373Z,4.10
2023-05-19T09:50:08.002Z,5.35
2023-05-19T09:52:44.237Z,3.15
2023-05-19T09:55:12.733Z,3.75
2023-05-19T09:57:40.714Z,3.65
2023-05-19T10:00:12.765Z,3.25
2023-05-19T10:02:44.144Z,3.70
2023-05-19T10:05:20.192Z,3.80
2023-05-19T10:07:48.623Z,4.38
2023-05-19T10:10:15.810Z,3.65
2023-05-19T10:15:11.378Z,2.78
2023-05-19T10:17:42.154Z,2.58
2023-05-19T10:20:12.811Z,3.67
2023-05-19T10:22:40.185Z,4.05
2023-05-19T10:25:07.827Z,3.90
2023-05-19T10:27:36.982Z,3.22
2023-05-19T10:30:16.527Z,2.33
2023-05-19T10:32:45.090Z,3.97
2023-05-19T10:35:50.458Z,3.45
2023-05-19T10:38:26.341Z,2.78
2023-05-19T10:41:17.950Z,2.65
2023-05-19T10:44:15.694Z,2.80
2023-05-19T10:46:43.062Z,3.05
2023-05-19T10:49:20.784Z,3.00
2023-05-19T10:51:47.336Z,2.75
2023-05-19T10:54:16.499Z,3.45
2023-05-19T10:56:47.200Z,3.10
2023-05-19T10:59:34.157Z,2.53
2023-05-19T11:02:04.357Z,2.88
2023-05-19T11:04:54.029Z,3.85
2023-05-19T11:07:21.814Z,2.83
2023-05-19T11:09:52.357Z,3.90
2023-05-19T11:12:24.710Z,2.78
2023-05-19T11:14:55.785Z,3.35
2023-05-19T11:17:24.920Z,2.83
2023-05-19T11:19:56.102Z,2.78
2023-05-19T11:22:25.765Z,2.78
2023-05-19T11:24:54.812Z,3.00
2023-05-19T11:27:21.351Z,3.00
2023-05-19T11:29:48.665Z,10.70
2023-05-19T11:32:15.882Z,3.47
2023-05-19T11:34:44.483Z,2.97
2023-05-19T11:37:11.427Z,2.35
2023-05-19T11:39:39.573Z,3.85
2023-05-19T11:42:06.534Z,2.72
2023-05-19T11:44:33.275Z,2.55
2023-05-19T11:47:04.360Z,2.70
2023-05-19T11:49:31.111Z,3.22
2023-05-19T11:51:58.060Z,2.80
2023-05-19T11:54:32.912Z,3.42
2023-05-19T11:57:02.753Z,5.45
2023-05-19T11:59:37.758Z,3.05
2023-05-19T12:02:16.944Z,2.22
2023-05-19T12:04:43.747Z,2.42
2023-05-19T12:07:17.469Z,2.30
2023-05-19T12:09:46.002Z,2.60
2023-05-19T12:12:24.979Z,2.40
2023-05-19T12:14:52.395Z,2.33
2023-05-19T12:17:20.327Z,2.38
2023-05-19T12:19:48.420Z,3.10
2023-05-19T12:22:16.246Z,2.00
2023-05-19T12:24:44.371Z,2.10
2023-05-19T12:27:19.556Z,1.95
2023-05-19T12:29:54.450Z,2.00
2023-05-19T12:32:25.528Z,3.08
2023-05-19T12:34:53.117Z,2.42
2023-05-19T12:37:19.884Z,2.25
2023-05-19T12:39:48.688Z,6.22
2023-05-19T12:42:16.159Z,2.50
2023-05-19T12:44:46.772Z,2.50
2023-05-19T12:47:17.467Z,2.15
2023-05-19T12:49:59.334Z,2.10
2023-05-19T12:52:27.714Z,1.73
2023-05-19T12:55:07.744Z,2.05
2023-05-19T12:57:35.681Z,1.90
2023-05-19T13:00:25.174Z,3.03
2023-05-19T13:03:02.200Z,2.00
2023-05-19T13:05:30.280Z,3.25
2023-05-19T13:08:01.956Z,3.55
2023-05-19T13:10:29.753Z,2.00
2023-05-19T13:12:57.219Z,2.80
2023-05-19T13:15:26.173Z,2.60
2023-05-19T13:17:56.389Z,2.00
2023-05-19T13:20:25.603Z,2.72
2023-05-19T13:22:53.692Z,1.85
2023-05-19T13:25:21.366Z,2.03
2023-05-19T13:27:48.629Z,2.28
2023-05-19T13:30:16.167Z,3.28
2023-05-19T13:32:42.802Z,2.22
2023-05-19T13:35:10.356Z,2.10
2023-05-19T13:37:37.062Z,1.98
2023-05-19T13:40:03.866Z,2.50
2023-05-19T13:42:32.058Z,2.00
2023-05-19T13:44:58.870Z,2.42
2023-05-19T13:47:25.776Z,2.58
2023-05-19T13:49:52.687Z,1.70
2023-05-19T13:52:21.009Z,2.00
2023-05-19T13:54:48.854Z,1.95
2023-05-19T13:57:16.391Z,3.05
2023-05-19T14:00:00.279Z,2.33
2023-05-19T14:02:39.307Z,1.90
2023-05-19T14:05:07.028Z,1.55
2023-05-19T14:07:34.975Z,2.53
2023-05-19T14:10:06.643Z,1.70
2023-05-19T14:12:47.017Z,1.73
2023-05-19T14:15:20.463Z,2.20
2023-05-19T14:20:15.821Z,1.80
2023-05-19T14:22:42.378Z,2.08
2023-05-19T14:25:09.126Z,1.75
2023-05-19T14:27:35.954Z,2.13
2023-05-19T14:30:02.763Z,2.15
2023-05-19T14:32:30.657Z,2.10
2023-05-19T14:34:57.521Z,1.73
2023-05-19T14:37:26.604Z,1.42
2023-05-19T14:39:53.349Z,1.42
2023-05-19T14:42:19.980Z,1.77
2023-05-19T14:44:46.830Z,1.98
2023-05-19T14:47:13.498Z,1.60
2023-05-19T14:49:40.208Z,1.70
2023-05-19T14:52:07.118Z,1.90
2023-05-19T14:54:34.056Z,1.90
2023-05-19T14:57:01.536Z,1.88
2023-05-19T14:59:30.604Z,2.08
2023-05-19T15:01:57.243Z,2.00
2023-05-19T15:04:23.951Z,1.73
2023-05-19T15:07:05.905Z,1.88
2023-05-19T15:09:36.668Z,2.00
2023-05-19T15:12:03.604Z,1.55
2023-05-19T15:14:30.972Z,1.90
2023-05-19T15:16:59.521Z,2.10
2023-05-19T15:19:26.600Z,1.85
2023-05-19T15:21:53.595Z,2.72
2023-05-19T15:24:20.531Z,1.73
2023-05-19T15:26:47.698Z,1.67
2023-05-19T15:29:14.409Z,1.80
2023-05-19T15:31:41.480Z,2.17
2023-05-19T15:34:08.352Z,2.25
2023-05-19T15:36:35.055Z,2.20
2023-05-19T15:39:01.710Z,2.30
2023-05-19T15:41:28.399Z,2.15
2023-05-19T15:43:55.113Z,2.33
2023-05-19T15:46:22.305Z,1.90
2023-05-19T15:48:48.930Z,2.03
2023-05-19T15:51:16.085Z,2.03
2023-05-19T15:56:09.548Z,1.55
2023-05-19T15:58:36.193Z,1.77
2023-05-19T16:01:03.164Z,2.13
2023-05-19T16:03:30.055Z,1.90
2023-05-19T16:05:57.073Z,1.70
2023-05-19T16:08:23.825Z,1.77
2023-05-19T16:10:50.606Z,2.03
2023-05-19T16:13:17.290Z,1.52
2023-05-19T16:15:43.918Z,1.80
2023-05-19T16:18:11.528Z,1.75
2023-05-19T16:20:38.431Z,2.78
2023-05-19T16:23:05.123Z,2.10
2023-05-19T16:25:31.792Z,1.90
2023-05-19T16:27:58.505Z,1.83
2023-05-19T16:30:26.423Z,1.90
2023-05-19T16:32:54.321Z,1.90
2023-05-19T16:35:21.654Z,1.77
2023-05-19T16:37:48.622Z,1.85
2023-05-19T16:40:15.433Z,1.50
2023-05-19T16:42:42.093Z,1.42
2023-05-19T16:45:09.353Z,1.85
2023-05-19T16:47:36.116Z,1.98
2023-05-19T16:50:03.731Z,2.00
2023-05-19T16:52:30.503Z,1.50
2023-05-19T16:54:57.310Z,1.90
2023-05-19T16:57:24.124Z,1.60
2023-05-19T16:59:51.049Z,1.33
2023-05-19T17:02:17.690Z,1.58
2023-05-19T17:04:44.337Z,1.50
2023-05-19T17:07:15.705Z,1.23
2023-05-19T17:09:43.092Z,1.90
2023-05-19T17:12:09.912Z,1.92
2023-05-19T17:14:36.758Z,2.13
2023-05-19T17:17:03.489Z,1.77
2023-05-19T17:19:30.206Z,1.65
2023-05-19T17:21:56.903Z,1.88
2023-05-19T17:24:23.598Z,2.00
2023-05-19T17:26:50.192Z,1.77
2023-05-19T17:29:16.825Z,2.00
2023-05-19T17:31:43.965Z,1.80
2023-05-19T17:36:37.274Z,1.75
2023-05-19T17:39:04.112Z,2.08
2023-05-19T17:41:30.957Z,2.00
2023-05-19T17:43:57.592Z,1.92
2023-05-19T17:46:24.267Z,1.63
2023-05-19T17:48:50.944Z,1.83
2023-05-19T17:51:17.814Z,1.60
2023-05-19T17:53:45.429Z,1.70
2023-05-19T17:56:12.800Z,2.20
2023-05-19T17:58:41.273Z,1.90
2023-05-19T18:01:08.574Z,1.63
2023-05-19T18:03:35.598Z,2.03
2023-05-19T18:06:02.426Z,1.75
2023-05-19T18:08:30.877Z,2.55
2023-05-19T18:10:58.286Z,2.10
2023-05-19T18:13:26.077Z,1.77
2023-05-19T18:15:52.868Z,1.60
2023-05-19T18:18:19.864Z,1.70
2023-05-19T18:20:46.651Z,1.63
2023-05-19T18:23:13.455Z,1.60
2023-05-19T18:25:40.111Z,1.85
2023-05-19T18:28:07.083Z,2.10
2023-05-19T18:30:33.976Z,1.45
2023-05-19T18:35:31.291Z,1.52
2023-05-19T18:37:58.087Z,1.50
2023-05-19T18:40:24.796Z,1.55
2023-05-19T18:42:51.496Z,1.55
2023-05-19T18:45:18.448Z,1.40
2023-05-19T18:47:45.114Z,2.50
2023-05-19T18:50:11.780Z,1.55
2023-05-19T18:52:38.402Z,1.60
2023-05-19T18:55:05.634Z,1.60
2023-05-19T18:57:33.413Z,1.65
2023-05-19T19:00:00.098Z,1.50
2023-05-19T19:02:27.039Z,1.85
2023-05-19T19:04:53.747Z,1.80
2023-05-19T19:07:20.465Z,1.58
2023-05-19T19:09:47.070Z,1.50
2023-05-19T19:12:13.770Z,1.92
2023-05-19T19:14:40.430Z,1.33
2023-05-19T19:17:07.289Z,1.65
2023-05-19T19:19:34.108Z,1.42
2023-05-19T19:22:01.053Z,1.65
2023-05-19T19:24:28.445Z,1.70
2023-05-19T19:26:55.137Z,1.73
2023-05-19T19:29:22.202Z,1.50
2023-05-19T19:34:15.961Z,1.60
2023-05-19T19:36:42.661Z,1.73
2023-05-19T19:39:09.525Z,2.22
2023-05-19T19:41:36.694Z,1.70
2023-05-19T19:44:03.599Z,1.67
2023-05-19T19:46:30.364Z,1.10
2023-05-19T19:49:00.602Z,1.75
2023-05-19T19:51:28.270Z,1.63
2023-05-19T19:53:54.936Z,1.70
2023-05-19T19:56:24.588Z,1.85
2023-05-19T19:58:51.237Z,1.63
2023-05-19T20:01:20.369Z,1.52
2023-05-19T20:03:48.113Z,1.38
2023-05-19T20:06:15.376Z,1.60
2023-05-19T20:11:10.918Z,1.95
2023-05-19T20:13:37.577Z,2.08
2023-05-19T20:16:04.592Z,1.63
2023-05-19T20:18:31.156Z,1.60
2023-05-19T20:20:57.879Z,1.60
2023-05-19T20:23:24.608Z,1.48
2023-05-19T20:26:10.292Z,3.17
2023-05-19T20:28:38.074Z,1.40
2023-05-19T20:31:05.147Z,1.70
2023-05-19T20:33:32.022Z,1.20
2023-05-19T20:35:58.631Z,2.00
2023-05-19T20:38:25.317Z,1.83
2023-05-19T20:40:52.624Z,1.50
2023-05-19T20:43:19.387Z,1.88
2023-05-19T20:45:46.480Z,1.67
2023-05-19T20:48:16.396Z,2.78
2023-05-19T20:50:43.171Z,1.52
2023-05-19T20:53:10.068Z,1.58
2023-05-19T20:55:38.289Z,1.70
2023-05-19T20:58:05.183Z,1.70
2023-05-19T21:00:32.436Z,1.67
2023-05-19T21:02:59.446Z,1.77
2023-05-19T21:05:26.290Z,1.92
2023-05-19T21:07:52.923Z,1.50
2023-05-19T21:10:19.507Z,1.83
2023-05-19T21:12:47.653Z,1.83
2023-05-19T21:15:14.401Z,1.58
2023-05-19T21:17:41.378Z,1.88
2023-05-19T21:20:08.872Z,1.80
2023-05-19T21:22:36.139Z,1.80
2023-05-19T21:25:02.909Z,1.38
2023-05-19T21:27:31.936Z,1.88
2023-05-19T21:29:58.950Z,2.00
2023-05-19T21:32:25.980Z,1.60
2023-05-19T21:34:52.569Z,1.58
2023-05-19T21:37:20.374Z,1.77
2023-05-19T21:39:47.140Z,1.70
2023-05-19T21:42:13.874Z,1.92
2023-05-19T21:44:40.818Z,1.88
2023-05-19T21:47:10.445Z,1.63
2023-05-19T21:49:38.426Z,1.55
2023-05-19T21:52:05.610Z,2.63
2023-05-19T21:56:58.653Z,1.85
2023-05-19T21:59:26.226Z,1.90
2023-05-19T22:01:52.897Z,1.75
2023-05-19T22:04:21.109Z,1.50
2023-05-19T22:06:47.845Z,1.85
2023-05-19T22:09:14.525Z,1.80
2023-05-19T22:11:41.566Z,1.90
2023-05-19T22:14:08.314Z,1.98
2023-05-19T22:16:35.265Z,1.95
2023-05-19T22:19:04.618Z,1.45
2023-05-19T22:21:32.023Z,1.70
2023-05-19T22:23:58.681Z,1.92
2023-05-19T22:26:27.724Z,1.30
2023-05-19T22:28:55.399Z,1.60
2023-05-19T22:31:22.531Z,1.98
2023-05-19T22:33:49.196Z,1.60
2023-05-19T22:36:16.671Z,1.35
2023-05-19T22:41:09.814Z,1.58
2023-05-19T22:43:36.935Z,1.48
2023-05-19T22:48:30.249Z,1.38
2023-05-19T22:50:56.975Z,1.70
2023-05-19T22:53:23.744Z,1.33
2023-05-19T22:55:50.446Z,1.48
2023-05-19T22:58:17.409Z,1.33
2023-05-19T23:00:44.208Z,1.40
2023-05-19T23:03:13.203Z,1.73
2023-05-19T23:05:40.509Z,1.30
2023-05-19T23:10:33.881Z,1.40
2023-05-19T23:13:00.628Z,1.35
2023-05-19T23:15:27.255Z,1.40
2023-05-19T23:17:54.712Z,1.73
2023-05-19T23:20:21.346Z,1.30
2023-05-19T23:22:47.937Z,1.90
2023-05-19T23:25:14.667Z,1.50
2023-05-19T23:27:41.351Z,1.13
2023-05-19T23:30:08.715Z,1.13
2023-05-19T23:32:35.403Z,1.75
2023-05-19T23:35:16.802Z,1.27
2023-05-19T23:37:43.399Z,1.20
2023-05-19T23:40:10.372Z,1.98
2023-05-19T23:42:37.140Z,1.42
2023-05-19T23:45:04.733Z,1.40
2023-05-19T23:47:31.444Z,1.13
2023-05-19T23:50:00.919Z,1.70
2023-05-19T23:52:27.557Z,1.23
2023-05-19T23:54:54.161Z,1.23
2023-05-19T23:57:20.946Z,1.40
2023-05-19T23:59:47.652Z,1.30
